sensor_id;sensor_type;location;lat;lon;timestamp;P1;durP1;ratioP1;P2;durP2;ratioP2
5125;SDS011;63008;53.112;8.896;2024-03-08T00:01:35;32.93;;;20.47;;
5125;SDS011;63008;53.112;8.896;2024-03-08T00:03:36;30.20;;;19.13;;
5125;SDS011;63008;53.112;8.896;2024-03-08T00:05:37;32.60;;;20.37;;
5125;SDS011;63008;53.112;8.896;2024-03-08T00:07:42;29.20;;;19.60;;
5125;SDS011;63008;53.112;8.896;2024-03-08T00:09:43;31.57;;;20.50;;
5125;SDS011;63008;53.112;8.896;2024-03-08T00:11:44;29.47;;;20.10;;
5125;SDS011;63008;53.112;8.896;2024-03-08T00:13:45;28.60;;;20.47;;
5125;SDS011;63008;53.112;8.896;2024-03-08T00:15:47;28.87;;;20.17;;
5125;SDS011;63008;53.112;8.896;2024-03-08T00:17:48;33.97;;;19.77;;
5125;SDS011;63008;53.112;8.896;2024-03-08T00:19:49;28.70;;;20.10;;
5125;SDS011;63008;53.112;8.896;2024-03-08T00:21:50;32.80;;;21.00;;
5125;SDS011;63008;53.112;8.896;2024-03-08T00:23:51;34.93;;;21.20;;
5125;SDS011;63008;53.112;8.896;2024-03-08T00:25:54;31.93;;;19.87;;
5125;SDS011;63008;53.112;8.896;2024-03-08T00:27:56;29.83;;;19.33;;
5125;SDS011;63008;53.112;8.896;2024-03-08T00:29:57;30.97;;;19.70;;
5125;SDS011;63008;53.112;8.896;2024-03-08T00:31:58;31.43;;;20.50;;
5125;SDS011;63008;53.112;8.896;2024-03-08T00:33:59;27.70;;;20.33;;
5125;SDS011;63008;53.112;8.896;2024-03-08T00:36:00;32.00;;;20.87;;
5125;SDS011;63008;53.112;8.896;2024-03-08T00:38:01;26.60;;;19.90;;
5125;SDS011;63008;53.112;8.896;2024-03-08T00:40:03;29.47;;;20.50;;
5125;SDS011;63008;53.112;8.896;2024-03-08T00:42:05;30.70;;;21.20;;
5125;SDS011;63008;53.112;8.896;2024-03-08T00:44:06;28.90;;;20.03;;
5125;SDS011;63008;53.112;8.896;2024-03-08T00:46:07;32.27;;;21.37;;
5125;SDS011;63008;53.112;8.896;2024-03-08T00:48:08;32.87;;;21.20;;
5125;SDS011;63008;53.112;8.896;2024-03-08T00:50:10;28.33;;;19.93;;
5125;SDS011;63008;53.112;8.896;2024-03-08T00:52:11;27.87;;;20.37;;
5125;SDS011;63008;53.112;8.896;2024-03-08T00:54:12;30.53;;;20.23;;
5125;SDS011;63008;53.112;8.896;2024-03-08T00:56:13;31.17;;;20.40;;
5125;SDS011;63008;53.112;8.896;2024-03-08T00:58:14;30.40;;;21.20;;
5125;SDS011;63008;53.112;8.896;2024-03-08T01:00:15;31.47;;;20.23;;
5125;SDS011;63008;53.112;8.896;2024-03-08T01:02:16;32.30;;;21.70;;
5125;SDS011;63008;53.112;8.896;2024-03-08T01:04:19;30.97;;;21.20;;
5125;SDS011;63008;53.112;8.896;2024-03-08T01:06:21;29.17;;;19.83;;
5125;SDS011;63008;53.112;8.896;2024-03-08T01:08:22;30.10;;;20.53;;
5125;SDS011;63008;53.112;8.896;2024-03-08T01:10:23;30.73;;;20.50;;
5125;SDS011;63008;53.112;8.896;2024-03-08T01:12:24;31.60;;;20.43;;
5125;SDS011;63008;53.112;8.896;2024-03-08T01:14:25;32.03;;;21.60;;
5125;SDS011;63008;53.112;8.896;2024-03-08T01:16:26;32.03;;;22.10;;
5125;SDS011;63008;53.112;8.896;2024-03-08T01:18:27;31.43;;;21.97;;
5125;SDS011;63008;53.112;8.896;2024-03-08T01:20:28;32.33;;;20.97;;
5125;SDS011;63008;53.112;8.896;2024-03-08T01:22:29;26.37;;;18.80;;
5125;SDS011;63008;53.112;8.896;2024-03-08T01:24:30;30.20;;;20.60;;
5125;SDS011;63008;53.112;8.896;2024-03-08T01:26:31;29.10;;;19.77;;
5125;SDS011;63008;53.112;8.896;2024-03-08T01:28:34;31.23;;;21.60;;
5125;SDS011;63008;53.112;8.896;2024-03-08T01:30:35;30.20;;;20.70;;
5125;SDS011;63008;53.112;8.896;2024-03-08T01:32:38;31.73;;;20.37;;
5125;SDS011;63008;53.112;8.896;2024-03-08T01:34:39;30.17;;;19.87;;
5125;SDS011;63008;53.112;8.896;2024-03-08T01:36:40;29.70;;;20.53;;
5125;SDS011;63008;53.112;8.896;2024-03-08T01:38:41;28.97;;;20.50;;
5125;SDS011;63008;53.112;8.896;2024-03-08T01:40:43;32.63;;;20.40;;
5125;SDS011;63008;53.112;8.896;2024-03-08T01:42:44;28.90;;;19.33;;
5125;SDS011;63008;53.112;8.896;2024-03-08T01:44:45;28.87;;;20.40;;
5125;SDS011;63008;53.112;8.896;2024-03-08T01:46:46;30.00;;;20.43;;
5125;SDS011;63008;53.112;8.896;2024-03-08T01:48:50;29.60;;;20.87;;
5125;SDS011;63008;53.112;8.896;2024-03-08T01:50:51;32.57;;;20.93;;
5125;SDS011;63008;53.112;8.896;2024-03-08T01:52:53;28.87;;;20.10;;
5125;SDS011;63008;53.112;8.896;2024-03-08T01:54:56;32.87;;;21.03;;
5125;SDS011;63008;53.112;8.896;2024-03-08T01:56:57;23.40;;;18.30;;
5125;SDS011;63008;53.112;8.896;2024-03-08T01:58:59;29.00;;;20.80;;
5125;SDS011;63008;53.112;8.896;2024-03-08T02:01:00;29.80;;;20.53;;
5125;SDS011;63008;53.112;8.896;2024-03-08T02:03:05;28.60;;;20.73;;
5125;SDS011;63008;53.112;8.896;2024-03-08T02:05:06;30.60;;;19.93;;
5125;SDS011;63008;53.112;8.896;2024-03-08T02:07:07;29.67;;;19.60;;
5125;SDS011;63008;53.112;8.896;2024-03-08T02:09:08;33.17;;;20.30;;
5125;SDS011;63008;53.112;8.896;2024-03-08T02:11:09;30.17;;;20.97;;
5125;SDS011;63008;53.112;8.896;2024-03-08T02:13:10;27.70;;;20.63;;
5125;SDS011;63008;53.112;8.896;2024-03-08T02:15:12;27.13;;;20.23;;
5125;SDS011;63008;53.112;8.896;2024-03-08T02:17:13;32.17;;;20.97;;
5125;SDS011;63008;53.112;8.896;2024-03-08T02:19:14;29.27;;;19.97;;
5125;SDS011;63008;53.112;8.896;2024-03-08T02:21:16;31.07;;;20.33;;
5125;SDS011;63008;53.112;8.896;2024-03-08T02:23:21;27.47;;;21.33;;
5125;SDS011;63008;53.112;8.896;2024-03-08T02:25:23;32.30;;;21.00;;
5125;SDS011;63008;53.112;8.896;2024-03-08T02:27:24;33.03;;;20.67;;
5125;SDS011;63008;53.112;8.896;2024-03-08T02:29:30;27.37;;;19.50;;
5125;SDS011;63008;53.112;8.896;2024-03-08T02:31:33;28.70;;;20.10;;
5125;SDS011;63008;53.112;8.896;2024-03-08T02:33:34;30.37;;;21.30;;
5125;SDS011;63008;53.112;8.896;2024-03-08T02:35:35;30.43;;;20.83;;
5125;SDS011;63008;53.112;8.896;2024-03-08T02:37:36;28.93;;;20.87;;
5125;SDS011;63008;53.112;8.896;2024-03-08T02:39:39;29.37;;;20.53;;
5125;SDS011;63008;53.112;8.896;2024-03-08T02:41:40;39.03;;;21.70;;
5125;SDS011;63008;53.112;8.896;2024-03-08T02:43:41;30.07;;;19.80;;
5125;SDS011;63008;53.112;8.896;2024-03-08T02:45:42;29.73;;;21.33;;
5125;SDS011;63008;53.112;8.896;2024-03-08T02:47:42;29.93;;;21.43;;
5125;SDS011;63008;53.112;8.896;2024-03-08T02:49:43;28.90;;;19.77;;
5125;SDS011;63008;53.112;8.896;2024-03-08T02:51:44;26.93;;;20.67;;
5125;SDS011;63008;53.112;8.896;2024-03-08T02:53:46;30.70;;;20.83;;
5125;SDS011;63008;53.112;8.896;2024-03-08T02:55:49;33.80;;;21.20;;
5125;SDS011;63008;53.112;8.896;2024-03-08T02:57:50;30.60;;;20.97;;
5125;SDS011;63008;53.112;8.896;2024-03-08T02:59:51;28.40;;;20.93;;
5125;SDS011;63008;53.112;8.896;2024-03-08T03:01:54;32.83;;;21.00;;
5125;SDS011;63008;53.112;8.896;2024-03-08T03:03:55;26.60;;;19.40;;
5125;SDS011;63008;53.112;8.896;2024-03-08T03:05:56;30.13;;;20.10;;
5125;SDS011;63008;53.112;8.896;2024-03-08T03:07:57;31.53;;;20.80;;
5125;SDS011;63008;53.112;8.896;2024-03-08T03:09:59;35.30;;;21.53;;
5125;SDS011;63008;53.112;8.896;2024-03-08T03:12:03;29.77;;;21.33;;
5125;SDS011;63008;53.112;8.896;2024-03-08T03:14:04;29.13;;;20.00;;
5125;SDS011;63008;53.112;8.896;2024-03-08T03:16:05;30.60;;;20.53;;
5125;SDS011;63008;53.112;8.896;2024-03-08T03:18:06;28.47;;;20.13;;
5125;SDS011;63008;53.112;8.896;2024-03-08T03:20:08;27.70;;;21.10;;
5125;SDS011;63008;53.112;8.896;2024-03-08T03:22:13;33.87;;;22.30;;
5125;SDS011;63008;53.112;8.896;2024-03-08T03:24:14;29.93;;;21.33;;
5125;SDS011;63008;53.112;8.896;2024-03-08T03:26:16;29.40;;;20.17;;
5125;SDS011;63008;53.112;8.896;2024-03-08T03:28:19;27.50;;;20.07;;
5125;SDS011;63008;53.112;8.896;2024-03-08T03:30:22;30.83;;;20.37;;
5125;SDS011;63008;53.112;8.896;2024-03-08T03:32:24;30.50;;;20.33;;
5125;SDS011;63008;53.112;8.896;2024-03-08T03:34:25;25.73;;;19.50;;
5125;SDS011;63008;53.112;8.896;2024-03-08T03:36:26;35.53;;;20.97;;
5125;SDS011;63008;53.112;8.896;2024-03-08T03:38:28;35.33;;;22.10;;
5125;SDS011;63008;53.112;8.896;2024-03-08T03:40:29;32.40;;;21.80;;
5125;SDS011;63008;53.112;8.896;2024-03-08T03:42:30;34.30;;;21.90;;
5125;SDS011;63008;53.112;8.896;2024-03-08T03:44:31;33.30;;;21.83;;
5125;SDS011;63008;53.112;8.896;2024-03-08T03:46:33;29.20;;;21.60;;
5125;SDS011;63008;53.112;8.896;2024-03-08T03:48:34;33.20;;;22.60;;
5125;SDS011;63008;53.112;8.896;2024-03-08T03:50:35;31.13;;;22.23;;
5125;SDS011;63008;53.112;8.896;2024-03-08T03:52:36;33.27;;;23.13;;
5125;SDS011;63008;53.112;8.896;2024-03-08T03:54:37;31.60;;;23.07;;
5125;SDS011;63008;53.112;8.896;2024-03-08T03:56:39;33.70;;;22.10;;
5125;SDS011;63008;53.112;8.896;2024-03-08T03:58:42;31.40;;;22.60;;
5125;SDS011;63008;53.112;8.896;2024-03-08T04:00:43;32.83;;;23.13;;
5125;SDS011;63008;53.112;8.896;2024-03-08T04:02:44;35.50;;;23.63;;
5125;SDS011;63008;53.112;8.896;2024-03-08T04:04:46;33.60;;;23.97;;
5125;SDS011;63008;53.112;8.896;2024-03-08T04:06:48;37.73;;;23.27;;
5125;SDS011;63008;53.112;8.896;2024-03-08T04:08:51;49.17;;;26.00;;
5125;SDS011;63008;53.112;8.896;2024-03-08T04:10:52;32.33;;;23.47;;
5125;SDS011;63008;53.112;8.896;2024-03-08T04:12:53;34.60;;;24.53;;
5125;SDS011;63008;53.112;8.896;2024-03-08T04:14:54;34.03;;;23.73;;
5125;SDS011;63008;53.112;8.896;2024-03-08T04:16:56;34.33;;;23.10;;
5125;SDS011;63008;53.112;8.896;2024-03-08T04:18:57;36.90;;;23.10;;
5125;SDS011;63008;53.112;8.896;2024-03-08T04:20:58;34.67;;;24.93;;
5125;SDS011;63008;53.112;8.896;2024-03-08T04:22:59;33.40;;;23.13;;
5125;SDS011;63008;53.112;8.896;2024-03-08T04:25:01;31.60;;;22.97;;
5125;SDS011;63008;53.112;8.896;2024-03-08T04:27:03;34.63;;;24.33;;
5125;SDS011;63008;53.112;8.896;2024-03-08T04:29:05;35.30;;;23.63;;
5125;SDS011;63008;53.112;8.896;2024-03-08T04:31:07;32.27;;;24.43;;
5125;SDS011;63008;53.112;8.896;2024-03-08T04:33:08;35.20;;;25.23;;
5125;SDS011;63008;53.112;8.896;2024-03-08T04:35:09;38.17;;;25.27;;
5125;SDS011;63008;53.112;8.896;2024-03-08T04:37:10;32.90;;;24.60;;
5125;SDS011;63008;53.112;8.896;2024-03-08T04:39:14;36.03;;;24.63;;
5125;SDS011;63008;53.112;8.896;2024-03-08T04:41:16;37.00;;;24.63;;
5125;SDS011;63008;53.112;8.896;2024-03-08T04:43:17;34.03;;;24.40;;
5125;SDS011;63008;53.112;8.896;2024-03-08T04:45:19;36.80;;;24.67;;
5125;SDS011;63008;53.112;8.896;2024-03-08T04:47:20;37.47;;;25.60;;
5125;SDS011;63008;53.112;8.896;2024-03-08T04:49:21;37.70;;;23.97;;
5125;SDS011;63008;53.112;8.896;2024-03-08T04:51:23;38.60;;;24.80;;
5125;SDS011;63008;53.112;8.896;2024-03-08T04:53:24;38.77;;;26.70;;
5125;SDS011;63008;53.112;8.896;2024-03-08T04:55:25;33.53;;;23.47;;
5125;SDS011;63008;53.112;8.896;2024-03-08T04:57:26;34.00;;;23.87;;
5125;SDS011;63008;53.112;8.896;2024-03-08T04:59:27;39.60;;;25.37;;
5125;SDS011;63008;53.112;8.896;2024-03-08T05:01:28;34.27;;;23.17;;
5125;SDS011;63008;53.112;8.896;2024-03-08T05:03:29;35.70;;;24.23;;
5125;SDS011;63008;53.112;8.896;2024-03-08T05:05:30;36.60;;;23.97;;
5125;SDS011;63008;53.112;8.896;2024-03-08T05:07:31;31.20;;;23.10;;
5125;SDS011;63008;53.112;8.896;2024-03-08T05:09:33;37.00;;;24.67;;
5125;SDS011;63008;53.112;8.896;2024-03-08T05:11:36;38.87;;;26.30;;
5125;SDS011;63008;53.112;8.896;2024-03-08T05:13:37;38.60;;;24.70;;
5125;SDS011;63008;53.112;8.896;2024-03-08T05:15:38;38.17;;;26.10;;
5125;SDS011;63008;53.112;8.896;2024-03-08T05:17:39;35.43;;;24.67;;
5125;SDS011;63008;53.112;8.896;2024-03-08T05:19:41;40.20;;;25.87;;
5125;SDS011;63008;53.112;8.896;2024-03-08T05:21:42;35.90;;;25.70;;
5125;SDS011;63008;53.112;8.896;2024-03-08T05:23:44;38.07;;;26.13;;
5125;SDS011;63008;53.112;8.896;2024-03-08T05:25:45;35.67;;;25.47;;
5125;SDS011;63008;53.112;8.896;2024-03-08T05:27:49;36.30;;;24.17;;
5125;SDS011;63008;53.112;8.896;2024-03-08T05:29:50;36.00;;;25.47;;
5125;SDS011;63008;53.112;8.896;2024-03-08T05:31:52;39.33;;;24.83;;
5125;SDS011;63008;53.112;8.896;2024-03-08T05:33:53;39.73;;;25.77;;
5125;SDS011;63008;53.112;8.896;2024-03-08T05:35:55;36.50;;;25.97;;
5125;SDS011;63008;53.112;8.896;2024-03-08T05:37:56;35.10;;;25.27;;
5125;SDS011;63008;53.112;8.896;2024-03-08T05:39:58;37.23;;;25.47;;
5125;SDS011;63008;53.112;8.896;2024-03-08T05:41:59;37.73;;;25.20;;
5125;SDS011;63008;53.112;8.896;2024-03-08T05:44:00;38.90;;;27.20;;
5125;SDS011;63008;53.112;8.896;2024-03-08T05:46:01;39.60;;;26.37;;
5125;SDS011;63008;53.112;8.896;2024-03-08T05:48:05;39.83;;;25.30;;
5125;SDS011;63008;53.112;8.896;2024-03-08T05:50:08;42.37;;;25.20;;
5125;SDS011;63008;53.112;8.896;2024-03-08T05:52:11;45.50;;;26.43;;
5125;SDS011;63008;53.112;8.896;2024-03-08T05:54:12;36.47;;;25.40;;
5125;SDS011;63008;53.112;8.896;2024-03-08T05:56:14;36.87;;;25.00;;
5125;SDS011;63008;53.112;8.896;2024-03-08T05:58:15;39.80;;;25.70;;
5125;SDS011;63008;53.112;8.896;2024-03-08T06:00:16;39.13;;;27.27;;
5125;SDS011;63008;53.112;8.896;2024-03-08T06:02:17;39.30;;;27.13;;
5125;SDS011;63008;53.112;8.896;2024-03-08T06:04:19;43.13;;;28.10;;
5125;SDS011;63008;53.112;8.896;2024-03-08T06:06:20;38.70;;;26.43;;
5125;SDS011;63008;53.112;8.896;2024-03-08T06:08:22;39.60;;;27.50;;
5125;SDS011;63008;53.112;8.896;2024-03-08T06:10:23;42.33;;;26.53;;
5125;SDS011;63008;53.112;8.896;2024-03-08T06:12:24;35.97;;;26.10;;
5125;SDS011;63008;53.112;8.896;2024-03-08T06:14:29;42.57;;;28.47;;
5125;SDS011;63008;53.112;8.896;2024-03-08T06:16:30;40.83;;;27.67;;
5125;SDS011;63008;53.112;8.896;2024-03-08T06:18:31;40.67;;;27.90;;
5125;SDS011;63008;53.112;8.896;2024-03-08T06:20:32;44.47;;;29.50;;
5125;SDS011;63008;53.112;8.896;2024-03-08T06:22:33;39.83;;;27.87;;
5125;SDS011;63008;53.112;8.896;2024-03-08T06:24:34;40.67;;;28.70;;
5125;SDS011;63008;53.112;8.896;2024-03-08T06:26:37;44.30;;;29.37;;
5125;SDS011;63008;53.112;8.896;2024-03-08T06:28:38;40.90;;;27.73;;
5125;SDS011;63008;53.112;8.896;2024-03-08T06:30:39;40.63;;;28.17;;
5125;SDS011;63008;53.112;8.896;2024-03-08T06:32:40;37.07;;;27.70;;
5125;SDS011;63008;53.112;8.896;2024-03-08T06:34:43;40.33;;;27.47;;
5125;SDS011;63008;53.112;8.896;2024-03-08T06:36:44;39.63;;;29.10;;
5125;SDS011;63008;53.112;8.896;2024-03-08T06:38:45;39.73;;;27.93;;
5125;SDS011;63008;53.112;8.896;2024-03-08T06:40:46;39.80;;;27.07;;
5125;SDS011;63008;53.112;8.896;2024-03-08T06:42:48;39.90;;;28.50;;
5125;SDS011;63008;53.112;8.896;2024-03-08T06:44:49;38.00;;;27.03;;
5125;SDS011;63008;53.112;8.896;2024-03-08T06:46:50;39.07;;;25.53;;
5125;SDS011;63008;53.112;8.896;2024-03-08T06:48:51;39.90;;;25.80;;
5125;SDS011;63008;53.112;8.896;2024-03-08T06:50:52;38.87;;;26.83;;
5125;SDS011;63008;53.112;8.896;2024-03-08T06:52:53;37.73;;;26.30;;
5125;SDS011;63008;53.112;8.896;2024-03-08T06:54:54;38.30;;;25.77;;
5125;SDS011;63008;53.112;8.896;2024-03-08T06:56:55;39.10;;;26.70;;
5125;SDS011;63008;53.112;8.896;2024-03-08T06:58:56;39.00;;;26.10;;
5125;SDS011;63008;53.112;8.896;2024-03-08T07:00:57;40.07;;;26.73;;
5125;SDS011;63008;53.112;8.896;2024-03-08T07:03:01;33.00;;;24.20;;
5125;SDS011;63008;53.112;8.896;2024-03-08T07:05:02;37.17;;;25.17;;
5125;SDS011;63008;53.112;8.896;2024-03-08T07:07:05;33.17;;;24.50;;
5125;SDS011;63008;53.112;8.896;2024-03-08T07:09:10;34.50;;;26.00;;
5125;SDS011;63008;53.112;8.896;2024-03-08T07:11:12;40.90;;;27.30;;
5125;SDS011;63008;53.112;8.896;2024-03-08T07:13:13;33.17;;;24.27;;
5125;SDS011;63008;53.112;8.896;2024-03-08T07:15:14;36.13;;;24.23;;
5125;SDS011;63008;53.112;8.896;2024-03-08T07:17:15;44.03;;;25.10;;
5125;SDS011;63008;53.112;8.896;2024-03-08T07:19:17;34.33;;;23.47;;
5125;SDS011;63008;53.112;8.896;2024-03-08T07:21:18;34.23;;;23.83;;
5125;SDS011;63008;53.112;8.896;2024-03-08T07:23:20;37.53;;;24.63;;
5125;SDS011;63008;53.112;8.896;2024-03-08T07:25:39;37.63;;;23.90;;
5125;SDS011;63008;53.112;8.896;2024-03-08T07:27:40;30.70;;;22.83;;
5125;SDS011;63008;53.112;8.896;2024-03-08T07:29:41;38.57;;;24.37;;
5125;SDS011;63008;53.112;8.896;2024-03-08T07:31:42;32.13;;;23.10;;
5125;SDS011;63008;53.112;8.896;2024-03-08T07:34:02;32.87;;;23.17;;
5125;SDS011;63008;53.112;8.896;2024-03-08T07:36:04;32.93;;;21.37;;
5125;SDS011;63008;53.112;8.896;2024-03-08T07:38:05;31.57;;;23.00;;
5125;SDS011;63008;53.112;8.896;2024-03-08T07:40:08;31.30;;;21.70;;
5125;SDS011;63008;53.112;8.896;2024-03-08T07:42:10;38.27;;;23.57;;
5125;SDS011;63008;53.112;8.896;2024-03-08T07:44:12;31.67;;;21.33;;
5125;SDS011;63008;53.112;8.896;2024-03-08T07:46:14;32.57;;;22.97;;
5125;SDS011;63008;53.112;8.896;2024-03-08T07:48:15;28.67;;;21.30;;
5125;SDS011;63008;53.112;8.896;2024-03-08T07:50:17;30.80;;;21.10;;
5125;SDS011;63008;53.112;8.896;2024-03-08T07:52:18;29.80;;;22.00;;
5125;SDS011;63008;53.112;8.896;2024-03-08T07:54:19;33.43;;;22.07;;
5125;SDS011;63008;53.112;8.896;2024-03-08T07:56:20;31.67;;;21.80;;
5125;SDS011;63008;53.112;8.896;2024-03-08T07:58:22;29.67;;;22.03;;
5125;SDS011;63008;53.112;8.896;2024-03-08T08:00:24;32.20;;;22.17;;
5125;SDS011;63008;53.112;8.896;2024-03-08T08:02:28;28.60;;;20.93;;
5125;SDS011;63008;53.112;8.896;2024-03-08T08:04:28;32.77;;;20.70;;
5125;SDS011;63008;53.112;8.896;2024-03-08T08:06:30;30.30;;;22.30;;
5125;SDS011;63008;53.112;8.896;2024-03-08T08:08:34;35.10;;;22.97;;
5125;SDS011;63008;53.112;8.896;2024-03-08T08:10:34;30.47;;;21.40;;
5125;SDS011;63008;53.112;8.896;2024-03-08T08:12:35;35.53;;;21.63;;
5125;SDS011;63008;53.112;8.896;2024-03-08T08:14:37;31.53;;;21.97;;
5125;SDS011;63008;53.112;8.896;2024-03-08T08:16:41;32.70;;;20.60;;
5125;SDS011;63008;53.112;8.896;2024-03-08T08:18:43;27.93;;;21.10;;
5125;SDS011;63008;53.112;8.896;2024-03-08T08:20:46;31.53;;;21.17;;
5125;SDS011;63008;53.112;8.896;2024-03-08T08:22:47;31.57;;;21.60;;
5125;SDS011;63008;53.112;8.896;2024-03-08T08:24:48;30.50;;;21.60;;
5125;SDS011;63008;53.112;8.896;2024-03-08T08:26:49;28.43;;;20.20;;
5125;SDS011;63008;53.112;8.896;2024-03-08T08:28:51;29.50;;;20.60;;
5125;SDS011;63008;53.112;8.896;2024-03-08T08:30:53;30.07;;;20.97;;
5125;SDS011;63008;53.112;8.896;2024-03-08T08:32:54;32.50;;;21.00;;
5125;SDS011;63008;53.112;8.896;2024-03-08T08:34:55;27.00;;;19.43;;
5125;SDS011;63008;53.112;8.896;2024-03-08T08:36:56;29.40;;;20.00;;
5125;SDS011;63008;53.112;8.896;2024-03-08T08:38:57;33.87;;;20.67;;
5125;SDS011;63008;53.112;8.896;2024-03-08T08:41:00;28.53;;;20.30;;
5125;SDS011;63008;53.112;8.896;2024-03-08T08:43:03;26.27;;;19.10;;
5125;SDS011;63008;53.112;8.896;2024-03-08T08:45:07;29.80;;;20.20;;
5125;SDS011;63008;53.112;8.896;2024-03-08T08:47:09;27.80;;;20.30;;
5125;SDS011;63008;53.112;8.896;2024-03-08T08:49:10;26.53;;;19.20;;
5125;SDS011;63008;53.112;8.896;2024-03-08T08:51:15;29.60;;;18.03;;
5125;SDS011;63008;53.112;8.896;2024-03-08T08:53:16;24.63;;;18.50;;
5125;SDS011;63008;53.112;8.896;2024-03-08T08:55:17;30.53;;;18.33;;
5125;SDS011;63008;53.112;8.896;2024-03-08T08:57:21;30.03;;;17.10;;
5125;SDS011;63008;53.112;8.896;2024-03-08T08:59:23;24.33;;;15.43;;
5125;SDS011;63008;53.112;8.896;2024-03-08T09:01:25;26.60;;;16.17;;
5125;SDS011;63008;53.112;8.896;2024-03-08T09:03:26;25.23;;;16.53;;
5125;SDS011;63008;53.112;8.896;2024-03-08T09:05:28;26.27;;;16.50;;
5125;SDS011;63008;53.112;8.896;2024-03-08T09:07:29;22.47;;;16.10;;
5125;SDS011;63008;53.112;8.896;2024-03-08T09:09:30;28.50;;;16.67;;
5125;SDS011;63008;53.112;8.896;2024-03-08T09:11:31;22.10;;;15.73;;
5125;SDS011;63008;53.112;8.896;2024-03-08T09:13:33;21.63;;;15.33;;
5125;SDS011;63008;53.112;8.896;2024-03-08T09:15:40;22.00;;;15.73;;
5125;SDS011;63008;53.112;8.896;2024-03-08T09:17:42;25.00;;;15.93;;
5125;SDS011;63008;53.112;8.896;2024-03-08T09:19:44;24.53;;;16.50;;
5125;SDS011;63008;53.112;8.896;2024-03-08T09:21:45;22.37;;;15.57;;
5125;SDS011;63008;53.112;8.896;2024-03-08T09:23:47;20.00;;;15.77;;
5125;SDS011;63008;53.112;8.896;2024-03-08T09:25:48;23.37;;;16.90;;
5125;SDS011;63008;53.112;8.896;2024-03-08T09:27:49;20.63;;;16.20;;
5125;SDS011;63008;53.112;8.896;2024-03-08T09:29:50;19.90;;;15.63;;
5125;SDS011;63008;53.112;8.896;2024-03-08T09:31:51;22.03;;;16.80;;
5125;SDS011;63008;53.112;8.896;2024-03-08T09:33:52;22.30;;;17.23;;
5125;SDS011;63008;53.112;8.896;2024-03-08T09:35:53;23.43;;;17.00;;
5125;SDS011;63008;53.112;8.896;2024-03-08T09:37:54;25.43;;;17.80;;
5125;SDS011;63008;53.112;8.896;2024-03-08T09:39:56;22.80;;;17.07;;
5125;SDS011;63008;53.112;8.896;2024-03-08T09:41:59;21.53;;;16.47;;
5125;SDS011;63008;53.112;8.896;2024-03-08T09:44:01;19.60;;;16.03;;
5125;SDS011;63008;53.112;8.896;2024-03-08T09:46:04;25.70;;;17.17;;
5125;SDS011;63008;53.112;8.896;2024-03-08T09:48:10;21.83;;;15.73;;
5125;SDS011;63008;53.112;8.896;2024-03-08T09:50:14;21.10;;;15.77;;
5125;SDS011;63008;53.112;8.896;2024-03-08T09:52:16;21.17;;;16.13;;
5125;SDS011;63008;53.112;8.896;2024-03-08T09:54:18;21.83;;;16.30;;
5125;SDS011;63008;53.112;8.896;2024-03-08T09:56:21;23.70;;;16.30;;
5125;SDS011;63008;53.112;8.896;2024-03-08T09:58:24;21.40;;;17.43;;
5125;SDS011;63008;53.112;8.896;2024-03-08T10:00:34;23.77;;;17.67;;
5125;SDS011;63008;53.112;8.896;2024-03-08T10:02:34;23.30;;;16.63;;
5125;SDS011;63008;53.112;8.896;2024-03-08T10:04:35;21.80;;;16.40;;
5125;SDS011;63008;53.112;8.896;2024-03-08T10:06:36;20.13;;;15.70;;
5125;SDS011;63008;53.112;8.896;2024-03-08T10:08:37;22.93;;;17.67;;
5125;SDS011;63008;53.112;8.896;2024-03-08T10:10:40;21.70;;;17.50;;
5125;SDS011;63008;53.112;8.896;2024-03-08T10:12:41;23.63;;;17.27;;
5125;SDS011;63008;53.112;8.896;2024-03-08T10:14:42;23.63;;;18.00;;
5125;SDS011;63008;53.112;8.896;2024-03-08T10:16:43;20.20;;;16.00;;
5125;SDS011;63008;53.112;8.896;2024-03-08T10:18:47;22.60;;;17.17;;
5125;SDS011;63008;53.112;8.896;2024-03-08T10:23:10;20.90;;;16.80;;
5125;SDS011;63008;53.112;8.896;2024-03-08T10:25:11;21.37;;;16.70;;
5125;SDS011;63008;53.112;8.896;2024-03-08T10:27:12;21.63;;;17.73;;
5125;SDS011;63008;53.112;8.896;2024-03-08T10:29:13;20.93;;;17.50;;
5125;SDS011;63008;53.112;8.896;2024-03-08T10:31:16;23.33;;;17.40;;
5125;SDS011;63008;53.112;8.896;2024-03-08T10:33:17;23.60;;;17.40;;
5125;SDS011;63008;53.112;8.896;2024-03-08T10:35:18;21.97;;;17.03;;
5125;SDS011;63008;53.112;8.896;2024-03-08T10:37:22;24.73;;;18.57;;
5125;SDS011;63008;53.112;8.896;2024-03-08T10:39:26;23.87;;;16.93;;
5125;SDS011;63008;53.112;8.896;2024-03-08T10:41:33;22.03;;;16.90;;
5125;SDS011;63008;53.112;8.896;2024-03-08T10:45:47;23.80;;;17.57;;
5125;SDS011;63008;53.112;8.896;2024-03-08T10:47:49;20.60;;;17.10;;
5125;SDS011;63008;53.112;8.896;2024-03-08T10:50:02;22.20;;;15.67;;
5125;SDS011;63008;53.112;8.896;2024-03-08T10:52:13;20.63;;;15.30;;
5125;SDS011;63008;53.112;8.896;2024-03-08T10:54:17;18.77;;;15.80;;
5125;SDS011;63008;53.112;8.896;2024-03-08T10:56:19;19.40;;;17.17;;
5125;SDS011;63008;53.112;8.896;2024-03-08T10:58:21;24.13;;;17.07;;
5125;SDS011;63008;53.112;8.896;2024-03-08T11:00:23;23.73;;;16.33;;
5125;SDS011;63008;53.112;8.896;2024-03-08T11:02:27;17.87;;;15.63;;
5125;SDS011;63008;53.112;8.896;2024-03-08T11:04:28;19.27;;;16.57;;
5125;SDS011;63008;53.112;8.896;2024-03-08T11:08:38;19.70;;;16.37;;
5125;SDS011;63008;53.112;8.896;2024-03-08T11:10:46;22.80;;;16.60;;
5125;SDS011;63008;53.112;8.896;2024-03-08T11:12:56;23.93;;;17.43;;
5125;SDS011;63008;53.112;8.896;2024-03-08T11:15:00;21.53;;;17.10;;
5125;SDS011;63008;53.112;8.896;2024-03-08T11:17:04;19.63;;;16.70;;
5125;SDS011;63008;53.112;8.896;2024-03-08T11:21:11;25.30;;;16.90;;
5125;SDS011;63008;53.112;8.896;2024-03-08T11:23:12;20.77;;;16.73;;
5125;SDS011;63008;53.112;8.896;2024-03-08T11:25:33;24.80;;;16.80;;
5125;SDS011;63008;53.112;8.896;2024-03-08T11:27:37;25.40;;;17.03;;
5125;SDS011;63008;53.112;8.896;2024-03-08T11:29:38;20.67;;;16.47;;
5125;SDS011;63008;53.112;8.896;2024-03-08T11:31:40;20.83;;;16.33;;
5125;SDS011;63008;53.112;8.896;2024-03-08T11:33:41;19.90;;;16.00;;
5125;SDS011;63008;53.112;8.896;2024-03-08T11:35:44;18.40;;;16.40;;
5125;SDS011;63008;53.112;8.896;2024-03-08T11:37:46;18.30;;;16.30;;
5125;SDS011;63008;53.112;8.896;2024-03-08T11:39:52;22.57;;;16.83;;
5125;SDS011;63008;53.112;8.896;2024-03-08T11:41:59;20.40;;;16.60;;
5125;SDS011;63008;53.112;8.896;2024-03-08T11:44:02;18.77;;;15.63;;
5125;SDS011;63008;53.112;8.896;2024-03-08T11:46:08;19.00;;;14.90;;
5125;SDS011;63008;53.112;8.896;2024-03-08T11:48:10;20.90;;;16.00;;
5125;SDS011;63008;53.112;8.896;2024-03-08T11:50:13;19.60;;;16.23;;
5125;SDS011;63008;53.112;8.896;2024-03-08T11:52:18;20.37;;;17.10;;
5125;SDS011;63008;53.112;8.896;2024-03-08T11:54:19;23.53;;;17.17;;
5125;SDS011;63008;53.112;8.896;2024-03-08T11:56:20;18.17;;;15.00;;
5125;SDS011;63008;53.112;8.896;2024-03-08T11:58:22;20.00;;;15.87;;
5125;SDS011;63008;53.112;8.896;2024-03-08T12:00:23;18.50;;;16.17;;
5125;SDS011;63008;53.112;8.896;2024-03-08T12:02:26;19.20;;;15.43;;
5125;SDS011;63008;53.112;8.896;2024-03-08T12:04:28;18.30;;;15.37;;
5125;SDS011;63008;53.112;8.896;2024-03-08T12:06:36;19.40;;;16.60;;
5125;SDS011;63008;53.112;8.896;2024-03-08T12:08:41;22.00;;;16.10;;
5125;SDS011;63008;53.112;8.896;2024-03-08T12:10:42;19.40;;;16.10;;
5125;SDS011;63008;53.112;8.896;2024-03-08T12:12:44;19.13;;;15.80;;